sensor_id;sensor_type;location;lat;lon;timestamp;P1;durP1;ratioP1;P2;durP2;ratioP2
16484;SDS011;8353;47.856;12.344;2022-07-23T00:02:23;3.75;;;3.45;;
16484;SDS011;8353;47.856;12.344;2022-07-23T00:04:53;3.65;;;3.33;;
16484;SDS011;8353;47.856;12.344;2022-07-23T00:07:24;3.83;;;3.50;;
16484;SDS011;8353;47.856;12.344;2022-07-23T00:09:56;3.80;;;3.50;;
16484;SDS011;8353;47.856;12.344;2022-07-23T00:12:27;4.75;;;3.70;;
16484;SDS011;8353;47.856;12.344;2022-07-23T00:14:57;3.78;;;3.47;;
16484;SDS011;8353;47.856;12.344;2022-07-23T00:17:28;3.85;;;3.55;;
16484;SDS011;8353;47.856;12.344;2022-07-23T00:19:58;3.78;;;3.38;;
16484;SDS011;8353;47.856;12.344;2022-07-23T00:22:29;4.13;;;3.15;;
16484;SDS011;8353;47.856;12.344;2022-07-23T00:25:01;3.80;;;3.50;;
16484;SDS011;8353;47.856;12.344;2022-07-23T00:27:31;3.40;;;3.10;;
16484;SDS011;8353;47.856;12.344;2022-07-23T00:30:02;3.15;;;2.90;;
16484;SDS011;8353;47.856;12.344;2022-07-23T00:32:44;3.22;;;3.03;;
16484;SDS011;8353;47.856;12.344;2022-07-23T00:35:14;3.38;;;3.17;;
16484;SDS011;8353;47.856;12.344;2022-07-23T00:37:45;2.92;;;2.72;;
16484;SDS011;8353;47.856;12.344;2022-07-23T00:40:18;3.33;;;3.05;;
16484;SDS011;8353;47.856;12.344;2022-07-23T00:42:48;3.83;;;3.38;;
16484;SDS011;8353;47.856;12.344;2022-07-23T00:45:19;3.40;;;3.20;;
16484;SDS011;8353;47.856;12.344;2022-07-23T00:47:50;3.20;;;2.92;;
16484;SDS011;8353;47.856;12.344;2022-07-23T00:50:23;3.45;;;3.15;;
16484;SDS011;8353;47.856;12.344;2022-07-23T00:52:54;3.80;;;3.30;;
16484;SDS011;8353;47.856;12.344;2022-07-23T00:55:26;3.92;;;3.40;;
16484;SDS011;8353;47.856;12.344;2022-07-23T00:57:56;3.58;;;3.28;;
16484;SDS011;8353;47.856;12.344;2022-07-23T01:00:28;3.25;;;2.95;;
16484;SDS011;8353;47.856;12.344;2022-07-23T01:02:59;3.33;;;3.03;;
16484;SDS011;8353;47.856;12.344;2022-07-23T01:05:29;3.38;;;3.17;;
16484;SDS011;8353;47.856;12.344;2022-07-23T01:08:00;3.42;;;3.13;;
16484;SDS011;8353;47.856;12.344;2022-07-23T01:10:32;3.53;;;3.22;;
16484;SDS011;8353;47.856;12.344;2022-07-23T01:13:04;3.83;;;3.53;;
16484;SDS011;8353;47.856;12.344;2022-07-23T01:15:37;3.45;;;3.15;;
16484;SDS011;8353;47.856;12.344;2022-07-23T01:18:08;3.60;;;3.30;;
16484;SDS011;8353;47.856;12.344;2022-07-23T01:20:41;3.97;;;3.60;;
16484;SDS011;8353;47.856;12.344;2022-07-23T01:23:13;3.50;;;3.20;;
16484;SDS011;8353;47.856;12.344;2022-07-23T01:25:47;4.07;;;3.78;;
16484;SDS011;8353;47.856;12.344;2022-07-23T01:28:18;4.20;;;3.90;;
16484;SDS011;8353;47.856;12.344;2022-07-23T01:30:49;4.38;;;3.55;;
16484;SDS011;8353;47.856;12.344;2022-07-23T01:33:20;4.65;;;3.47;;
16484;SDS011;8353;47.856;12.344;2022-07-23T01:35:51;3.20;;;3.00;;
16484;SDS011;8353;47.856;12.344;2022-07-23T01:38:23;4.13;;;3.70;;
16484;SDS011;8353;47.856;12.344;2022-07-23T01:40:53;3.70;;;3.40;;
16484;SDS011;8353;47.856;12.344;2022-07-23T01:43:24;5.65;;;3.80;;
16484;SDS011;8353;47.856;12.344;2022-07-23T01:45:55;4.50;;;3.90;;
16484;SDS011;8353;47.856;12.344;2022-07-23T01:48:26;4.18;;;3.88;;
16484;SDS011;8353;47.856;12.344;2022-07-23T01:51:12;4.28;;;3.95;;
16484;SDS011;8353;47.856;12.344;2022-07-23T01:53:44;4.18;;;3.80;;
16484;SDS011;8353;47.856;12.344;2022-07-23T01:56:15;3.72;;;3.42;;
16484;SDS011;8353;47.856;12.344;2022-07-23T01:58:47;3.97;;;3.58;;
16484;SDS011;8353;47.856;12.344;2022-07-23T02:01:18;3.58;;;3.28;;
16484;SDS011;8353;47.856;12.344;2022-07-23T02:03:48;3.85;;;3.25;;
16484;SDS011;8353;47.856;12.344;2022-07-23T02:06:18;3.42;;;3.22;;
16484;SDS011;8353;47.856;12.344;2022-07-23T02:08:50;3.08;;;2.88;;
16484;SDS011;8353;47.856;12.344;2022-07-23T02:11:21;3.67;;;3.38;;
16484;SDS011;8353;47.856;12.344;2022-07-23T02:13:52;4.25;;;3.90;;
16484;SDS011;8353;47.856;12.344;2022-07-23T02:16:23;5.38;;;4.03;;
16484;SDS011;8353;47.856;12.344;2022-07-23T02:18:54;4.15;;;3.58;;
16484;SDS011;8353;47.856;12.344;2022-07-23T02:21:25;4.70;;;4.30;;
16484;SDS011;8353;47.856;12.344;2022-07-23T02:23:57;4.97;;;4.57;;
16484;SDS011;8353;47.856;12.344;2022-07-23T02:26:28;4.97;;;4.50;;
16484;SDS011;8353;47.856;12.344;2022-07-23T02:29:01;5.60;;;4.90;;
16484;SDS011;8353;47.856;12.344;2022-07-23T02:31:32;5.82;;;5.32;;
16484;SDS011;8353;47.856;12.344;2022-07-23T02:34:03;6.13;;;5.47;;
16484;SDS011;8353;47.856;12.344;2022-07-23T02:36:33;5.80;;;5.25;;
16484;SDS011;8353;47.856;12.344;2022-07-23T02:39:05;6.03;;;5.32;;
16484;SDS011;8353;47.856;12.344;2022-07-23T02:41:36;5.53;;;5.03;;
16484;SDS011;8353;47.856;12.344;2022-07-23T02:44:07;5.85;;;5.28;;
16484;SDS011;8353;47.856;12.344;2022-07-23T02:46:38;7.18;;;5.28;;
16484;SDS011;8353;47.856;12.344;2022-07-23T02:49:09;5.57;;;5.07;;
16484;SDS011;8353;47.856;12.344;2022-07-23T02:51:39;5.78;;;5.28;;
16484;SDS011;8353;47.856;12.344;2022-07-23T02:54:12;6.03;;;5.43;;
16484;SDS011;8353;47.856;12.344;2022-07-23T02:56:43;5.50;;;5.00;;
16484;SDS011;8353;47.856;12.344;2022-07-23T02:59:13;6.60;;;5.18;;
16484;SDS011;8353;47.856;12.344;2022-07-23T03:01:44;5.53;;;5.03;;
16484;SDS011;8353;47.856;12.344;2022-07-23T03:04:15;5.65;;;5.25;;
16484;SDS011;8353;47.856;12.344;2022-07-23T03:06:45;5.95;;;5.45;;
16484;SDS011;8353;47.856;12.344;2022-07-23T03:09:16;5.90;;;5.30;;
16484;SDS011;8353;47.856;12.344;2022-07-23T03:11:47;5.20;;;4.75;;
16484;SDS011;8353;47.856;12.344;2022-07-23T03:14:18;10.20;;;5.43;;
16484;SDS011;8353;47.856;12.344;2022-07-23T03:16:58;5.13;;;4.63;;
16484;SDS011;8353;47.856;12.344;2022-07-23T03:19:41;5.32;;;4.93;;
16484;SDS011;8353;47.856;12.344;2022-07-23T03:22:11;5.25;;;4.65;;
16484;SDS011;8353;47.856;12.344;2022-07-23T03:24:43;6.03;;;4.50;;
16484;SDS011;8353;47.856;12.344;2022-07-23T03:27:23;6.47;;;4.75;;
16484;SDS011;8353;47.856;12.344;2022-07-23T03:29:55;4.97;;;4.47;;
16484;SDS011;8353;47.856;12.344;2022-07-23T03:32:27;4.50;;;4.10;;
16484;SDS011;8353;47.856;12.344;2022-07-23T03:34:57;4.70;;;4.30;;
16484;SDS011;8353;47.856;12.344;2022-07-23T03:37:28;4.60;;;4.13;;
16484;SDS011;8353;47.856;12.344;2022-07-23T03:39:59;5.32;;;4.82;;
16484;SDS011;8353;47.856;12.344;2022-07-23T03:42:31;4.80;;;4.30;;
16484;SDS011;8353;47.856;12.344;2022-07-23T03:45:02;4.60;;;4.28;;
16484;SDS011;8353;47.856;12.344;2022-07-23T03:47:33;4.53;;;4.10;;
16484;SDS011;8353;47.856;12.344;2022-07-23T03:50:03;4.60;;;4.25;;
16484;SDS011;8353;47.856;12.344;2022-07-23T03:52:34;6.93;;;6.38;;
16484;SDS011;8353;47.856;12.344;2022-07-23T03:55:06;4.32;;;4.00;;
16484;SDS011;8353;47.856;12.344;2022-07-23T03:57:37;4.38;;;4.07;;
16484;SDS011;8353;47.856;12.344;2022-07-23T04:00:09;4.50;;;4.10;;
16484;SDS011;8353;47.856;12.344;2022-07-23T04:02:41;4.90;;;4.47;;
16484;SDS011;8353;47.856;12.344;2022-07-23T04:05:12;4.43;;;4.03;;
16484;SDS011;8353;47.856;12.344;2022-07-23T04:07:43;4.50;;;4.10;;
16484;SDS011;8353;47.856;12.344;2022-07-23T04:10:15;4.25;;;3.78;;
16484;SDS011;8353;47.856;12.344;2022-07-23T04:12:46;4.63;;;4.22;;
16484;SDS011;8353;47.856;12.344;2022-07-23T04:15:16;4.10;;;3.78;;
16484;SDS011;8353;47.856;12.344;2022-07-23T04:17:47;3.83;;;3.53;;
16484;SDS011;8353;47.856;12.344;2022-07-23T04:20:18;3.85;;;3.55;;
16484;SDS011;8353;47.856;12.344;2022-07-23T04:22:48;4.13;;;3.80;;
16484;SDS011;8353;47.856;12.344;2022-07-23T04:25:22;3.30;;;3.00;;
16484;SDS011;8353;47.856;12.344;2022-07-23T04:27:53;3.67;;;3.38;;
16484;SDS011;8353;47.856;12.344;2022-07-23T04:30:24;3.63;;;3.33;;
16484;SDS011;8353;47.856;12.344;2022-07-23T04:32:55;3.15;;;2.95;;
16484;SDS011;8353;47.856;12.344;2022-07-23T04:35:25;3.58;;;3.28;;
16484;SDS011;8353;47.856;12.344;2022-07-23T04:37:55;4.07;;;3.78;;
16484;SDS011;8353;47.856;12.344;2022-07-23T04:40:27;3.67;;;3.38;;
16484;SDS011;8353;47.856;12.344;2022-07-23T04:42:58;3.50;;;3.20;;
16484;SDS011;8353;47.856;12.344;2022-07-23T04:45:28;3.53;;;3.22;;
16484;SDS011;8353;47.856;12.344;2022-07-23T04:48:05;3.50;;;3.20;;
16484;SDS011;8353;47.856;12.344;2022-07-23T04:50:48;3.72;;;3.42;;
16484;SDS011;8353;47.856;12.344;2022-07-23T04:53:18;5.03;;;4.63;;
16484;SDS011;8353;47.856;12.344;2022-07-23T04:55:51;5.20;;;4.80;;
16484;SDS011;8353;47.856;12.344;2022-07-23T04:58:21;4.90;;;4.50;;
16484;SDS011;8353;47.856;12.344;2022-07-23T05:00:52;4.70;;;4.30;;
16484;SDS011;8353;47.856;12.344;2022-07-23T05:03:27;5.43;;;4.90;;
16484;SDS011;8353;47.856;12.344;2022-07-23T05:05:59;6.18;;;5.68;;
16484;SDS011;8353;47.856;12.344;2022-07-23T05:08:30;6.05;;;5.45;;
16484;SDS011;8353;47.856;12.344;2022-07-23T05:11:02;6.03;;;5.53;;
16484;SDS011;8353;47.856;12.344;2022-07-23T05:13:33;5.22;;;4.72;;
16484;SDS011;8353;47.856;12.344;2022-07-23T05:16:04;6.95;;;5.75;;
16484;SDS011;8353;47.856;12.344;2022-07-23T05:18:35;6.03;;;5.32;;
16484;SDS011;8353;47.856;12.344;2022-07-23T05:21:06;5.75;;;5.25;;
16484;SDS011;8353;47.856;12.344;2022-07-23T05:23:37;6.32;;;5.72;;
16484;SDS011;8353;47.856;12.344;2022-07-23T05:26:10;5.90;;;5.30;;
16484;SDS011;8353;47.856;12.344;2022-07-23T05:28:41;5.25;;;4.82;;
16484;SDS011;8353;47.856;12.344;2022-07-23T05:31:11;5.63;;;5.13;;
16484;SDS011;8353;47.856;12.344;2022-07-23T05:33:42;10.07;;;5.68;;
16484;SDS011;8353;47.856;12.344;2022-07-23T05:36:13;5.88;;;5.35;;
16484;SDS011;8353;47.856;12.344;2022-07-23T05:38:44;6.32;;;5.72;;
16484;SDS011;8353;47.856;12.344;2022-07-23T05:41:17;5.90;;;5.40;;
16484;SDS011;8353;47.856;12.344;2022-07-23T05:43:47;5.65;;;5.15;;
16484;SDS011;8353;47.856;12.344;2022-07-23T05:46:17;4.95;;;4.55;;
16484;SDS011;8353;47.856;12.344;2022-07-23T05:48:47;5.38;;;4.93;;
16484;SDS011;8353;47.856;12.344;2022-07-23T05:51:19;5.45;;;5.00;;
16484;SDS011;8353;47.856;12.344;2022-07-23T05:53:51;5.07;;;4.60;;
16484;SDS011;8353;47.856;12.344;2022-07-23T05:56:23;4.60;;;4.20;;
16484;SDS011;8353;47.856;12.344;2022-07-23T05:58:54;4.97;;;4.47;;
16484;SDS011;8353;47.856;12.344;2022-07-23T06:01:25;5.13;;;4.68;;
16484;SDS011;8353;47.856;12.344;2022-07-23T06:03:56;4.70;;;4.30;;
16484;SDS011;8353;47.856;12.344;2022-07-23T06:06:27;5.05;;;4.55;;
16484;SDS011;8353;47.856;12.344;2022-07-23T06:08:58;4.72;;;4.20;;
16484;SDS011;8353;47.856;12.344;2022-07-23T06:11:30;5.32;;;4.32;;
16484;SDS011;8353;47.856;12.344;2022-07-23T06:14:01;5.40;;;4.97;;
16484;SDS011;8353;47.856;12.344;2022-07-23T06:16:32;4.93;;;4.38;;
16484;SDS011;8353;47.856;12.344;2022-07-23T06:19:03;4.82;;;4.32;;
16484;SDS011;8353;47.856;12.344;2022-07-23T06:21:34;4.13;;;3.83;;
16484;SDS011;8353;47.856;12.344;2022-07-23T06:24:05;4.65;;;4.32;;
16484;SDS011;8353;47.856;12.344;2022-07-23T06:26:38;6.47;;;5.70;;
16484;SDS011;8353;47.856;12.344;2022-07-23T06:29:08;4.75;;;4.35;;
16484;SDS011;8353;47.856;12.344;2022-07-23T06:31:39;4.53;;;4.22;;
16484;SDS011;8353;47.856;12.344;2022-07-23T06:34:10;5.60;;;4.93;;
16484;SDS011;8353;47.856;12.344;2022-07-23T06:36:40;6.32;;;4.88;;
16484;SDS011;8353;47.856;12.344;2022-07-23T06:39:10;4.97;;;4.57;;
16484;SDS011;8353;47.856;12.344;2022-07-23T06:41:42;6.25;;;5.20;;
16484;SDS011;8353;47.856;12.344;2022-07-23T06:44:13;6.03;;;5.53;;
16484;SDS011;8353;47.856;12.344;2022-07-23T06:46:44;4.40;;;4.10;;
16484;SDS011;8353;47.856;12.344;2022-07-23T06:49:15;4.30;;;4.00;;
16484;SDS011;8353;47.856;12.344;2022-07-23T06:51:46;6.00;;;5.43;;
16484;SDS011;8353;47.856;12.344;2022-07-23T06:54:16;4.22;;;3.92;;
16484;SDS011;8353;47.856;12.344;2022-07-23T06:56:47;6.20;;;5.07;;
16484;SDS011;8353;47.856;12.344;2022-07-23T06:59:17;4.05;;;3.65;;
16484;SDS011;8353;47.856;12.344;2022-07-23T07:01:48;5.60;;;5.10;;
16484;SDS011;8353;47.856;12.344;2022-07-23T07:04:19;5.53;;;4.78;;
16484;SDS011;8353;47.856;12.344;2022-07-23T07:06:50;4.80;;;4.35;;
16484;SDS011;8353;47.856;12.344;2022-07-23T07:09:21;5.03;;;4.63;;
16484;SDS011;8353;47.856;12.344;2022-07-23T07:11:53;4.68;;;4.28;;
16484;SDS011;8353;47.856;12.344;2022-07-23T07:14:26;5.15;;;4.45;;
16484;SDS011;8353;47.856;12.344;2022-07-23T07:16:56;5.50;;;5.03;;
16484;SDS011;8353;47.856;12.344;2022-07-23T07:19:27;5.55;;;4.80;;
16484;SDS011;8353;47.856;12.344;2022-07-23T07:21:59;4.50;;;4.10;;
16484;SDS011;8353;47.856;12.344;2022-07-23T07:24:29;4.63;;;4.22;;
16484;SDS011;8353;47.856;12.344;2022-07-23T07:27:02;4.53;;;4.13;;
16484;SDS011;8353;47.856;12.344;2022-07-23T07:29:32;4.50;;;4.10;;
16484;SDS011;8353;47.856;12.344;2022-07-23T07:32:03;4.53;;;4.05;;
16484;SDS011;8353;47.856;12.344;2022-07-23T07:34:34;4.38;;;4.07;;
16484;SDS011;8353;47.856;12.344;2022-07-23T07:37:04;4.88;;;4.15;;
16484;SDS011;8353;47.856;12.344;2022-07-23T07:39:35;5.05;;;4.63;;
16484;SDS011;8353;47.856;12.344;2022-07-23T07:42:07;4.53;;;4.18;;
16484;SDS011;8353;47.856;12.344;2022-07-23T07:44:38;4.30;;;3.90;;
16484;SDS011;8353;47.856;12.344;2022-07-23T07:47:08;3.90;;;3.60;;
16484;SDS011;8353;47.856;12.344;2022-07-23T07:49:39;4.43;;;4.13;;
16484;SDS011;8353;47.856;12.344;2022-07-23T07:52:10;4.15;;;3.85;;
16484;SDS011;8353;47.856;12.344;2022-07-23T07:54:41;3.90;;;3.60;;
16484;SDS011;8353;47.856;12.344;2022-07-23T07:57:14;4.18;;;3.78;;
16484;SDS011;8353;47.856;12.344;2022-07-23T07:59:45;3.92;;;3.63;;
16484;SDS011;8353;47.856;12.344;2022-07-23T08:02:16;3.97;;;3.58;;
16484;SDS011;8353;47.856;12.344;2022-07-23T08:04:47;3.58;;;3.38;;
16484;SDS011;8353;47.856;12.344;2022-07-23T08:07:17;3.92;;;3.63;;
16484;SDS011;8353;47.856;12.344;2022-07-23T08:09:48;3.85;;;3.53;;
16484;SDS011;8353;47.856;12.344;2022-07-23T08:12:20;3.75;;;3.45;;
16484;SDS011;8353;47.856;12.344;2022-07-23T08:14:54;3.60;;;3.30;;
16484;SDS011;8353;47.856;12.344;2022-07-23T08:17:25;4.45;;;3.75;;
16484;SDS011;8353;47.856;12.344;2022-07-23T08:19:55;4.35;;;4.05;;
16484;SDS011;8353;47.856;12.344;2022-07-23T08:22:40;4.72;;;4.35;;
16484;SDS011;8353;47.856;12.344;2022-07-23T08:25:12;3.13;;;2.92;;
16484;SDS011;8353;47.856;12.344;2022-07-23T08:27:44;4.28;;;3.80;;
16484;SDS011;8353;47.856;12.344;2022-07-23T08:30:14;3.60;;;3.30;;
16484;SDS011;8353;47.856;12.344;2022-07-23T08:32:53;4.15;;;3.83;;
16484;SDS011;8353;47.856;12.344;2022-07-23T08:35:27;3.97;;;3.53;;
16484;SDS011;8353;47.856;12.344;2022-07-23T08:38:00;3.85;;;3.53;;
16484;SDS011;8353;47.856;12.344;2022-07-23T08:40:32;3.40;;;3.10;;
16484;SDS011;8353;47.856;12.344;2022-07-23T08:43:06;3.40;;;3.10;;
16484;SDS011;8353;47.856;12.344;2022-07-23T08:45:39;4.00;;;3.10;;
16484;SDS011;8353;47.856;12.344;2022-07-23T08:48:11;3.35;;;3.10;;
16484;SDS011;8353;47.856;12.344;2022-07-23T08:50:43;3.65;;;3.35;;
16484;SDS011;8353;47.856;12.344;2022-07-23T08:53:15;3.20;;;2.92;;
16484;SDS011;8353;47.856;12.344;2022-07-23T08:55:48;3.38;;;3.17;;
16484;SDS011;8353;47.856;12.344;2022-07-23T08:58:21;3.15;;;2.95;;
16484;SDS011;8353;47.856;12.344;2022-07-23T09:00:52;3.60;;;3.15;;
16484;SDS011;8353;47.856;12.344;2022-07-23T09:03:23;2.60;;;2.40;;
16484;SDS011;8353;47.856;12.344;2022-07-23T09:05:55;2.95;;;2.75;;
16484;SDS011;8353;47.856;12.344;2022-07-23T09:08:33;2.90;;;2.70;;
16484;SDS011;8353;47.856;12.344;2022-07-23T09:11:05;3.33;;;3.03;;
16484;SDS011;8353;47.856;12.344;2022-07-23T09:13:40;2.97;;;2.78;;
16484;SDS011;8353;47.856;12.344;2022-07-23T09:16:13;2.95;;;2.75;;
16484;SDS011;8353;47.856;12.344;2022-07-23T09:18:46;3.08;;;2.83;;
16484;SDS011;8353;47.856;12.344;2022-07-23T09:21:21;3.22;;;3.03;;
16484;SDS011;8353;47.856;12.344;2022-07-23T09:23:55;2.63;;;2.42;;
16484;SDS011;8353;47.856;12.344;2022-07-23T09:26:31;2.90;;;2.70;;
16484;SDS011;8353;47.856;12.344;2022-07-23T09:29:06;4.15;;;2.70;;
16484;SDS011;8353;47.856;12.344;2022-07-23T09:31:43;2.90;;;2.70;;
16484;SDS011;8353;47.856;12.344;2022-07-23T09:34:19;3.08;;;2.88;;
16484;SDS011;8353;47.856;12.344;2022-07-23T09:36:51;3.38;;;2.58;;
16484;SDS011;8353;47.856;12.344;2022-07-23T09:39:25;3.17;;;2.97;;
16484;SDS011;8353;47.856;12.344;2022-07-23T09:41:57;3.42;;;3.08;;
16484;SDS011;8353;47.856;12.344;2022-07-23T09:44:43;3.45;;;3.15;;
16484;SDS011;8353;47.856;12.344;2022-07-23T09:47:15;3.33;;;3.03;;
16484;SDS011;8353;47.856;12.344;2022-07-23T09:49:57;4.18;;;3.20;;
16484;SDS011;8353;47.856;12.344;2022-07-23T09:52:32;3.47;;;3.17;;
16484;SDS011;8353;47.856;12.344;2022-07-23T09:55:05;3.03;;;2.83;;
16484;SDS011;8353;47.856;12.344;2022-07-23T09:57:36;3.20;;;3.00;;
16484;SDS011;8353;47.856;12.344;2022-07-23T10:00:11;3.10;;;2.60;;
16484;SDS011;8353;47.856;12.344;2022-07-23T10:02:45;2.78;;;2.58;;
16484;SDS011;8353;47.856;12.344;2022-07-23T10:05:16;2.70;;;2.50;;
16484;SDS011;8353;47.856;12.344;2022-07-23T10:07:49;3.20;;;3.00;;
16484;SDS011;8353;47.856;12.344;2022-07-23T10:10:21;3.40;;;3.10;;
16484;SDS011;8353;47.856;12.344;2022-07-23T10:12:56;4.20;;;3.22;;
16484;SDS011;8353;47.856;12.344;2022-07-23T10:15:54;3.00;;;2.80;;
16484;SDS011;8353;47.856;12.344;2022-07-23T10:18:25;3.65;;;3.35;;
16484;SDS011;8353;47.856;12.344;2022-07-23T10:20:56;3.85;;;3.00;;
16484;SDS011;8353;47.856;12.344;2022-07-23T10:23:27;3.97;;;2.90;;
16484;SDS011;8353;47.856;12.344;2022-07-23T10:26:05;3.15;;;2.85;;
16484;SDS011;8353;47.856;12.344;2022-07-23T10:28:42;2.72;;;2.53;;
16484;SDS011;8353;47.856;12.344;2022-07-23T10:31:35;3.40;;;3.10;;
16484;SDS011;8353;47.856;12.344;2022-07-23T10:34:15;2.90;;;2.70;;
16484;SDS011;8353;47.856;12.344;2022-07-23T10:36:52;2.92;;;2.72;;
16484;SDS011;8353;47.856;12.344;2022-07-23T10:39:27;3.63;;;2.70;;
16484;SDS011;8353;47.856;12.344;2022-07-23T10:42:10;2.95;;;2.67;;
16484;SDS011;8353;47.856;12.344;2022-07-23T10:44:42;2.65;;;2.45;;
16484;SDS011;8353;47.856;12.344;2022-07-23T10:47:25;3.40;;;3.10;;
16484;SDS011;8353;47.856;12.344;2022-07-23T10:50:20;3.00;;;2.80;;
16484;SDS011;8353;47.856;12.344;2022-07-23T10:53:11;3.13;;;2.90;;
16484;SDS011;8353;47.856;12.344;2022-07-23T10:55:50;3.40;;;3.13;;
16484;SDS011;8353;47.856;12.344;2022-07-23T10:58:23;4.53;;;2.97;;
16484;SDS011;8353;47.856;12.344;2022-07-23T11:01:31;3.50;;;3.30;;
16484;SDS011;8353;47.856;12.344;2022-07-23T11:04:06;3.30;;;3.00;;
16484;SDS011;8353;47.856;12.344;2022-07-23T11:09:41;3.33;;;3.03;;
16484;SDS011;8353;47.856;12.344;2022-07-23T11:12:33;3.42;;;2.90;;
16484;SDS011;8353;47.856;12.344;2022-07-23T11:15:06;3.05;;;2.75;;
16484;SDS011;8353;47.856;12.344;2022-07-23T11:17:38;4.13;;;3.78;;
16484;SDS011;8353;47.856;12.344;2022-07-23T11:20:31;3.65;;;3.35;;
16484;SDS011;8353;47.856;12.344;2022-07-23T11:23:01;3.80;;;3.50;;
16484;SDS011;8353;47.856;12.344;2022-07-23T11:25:34;3.00;;;2.80;;
16484;SDS011;8353;47.856;12.344;2022-07-23T11:28:13;4.00;;;3.70;;
16484;SDS011;8353;47.856;12.344;2022-07-23T11:30:45;4.07;;;3.78;;
16484;SDS011;8353;47.856;12.344;2022-07-23T11:33:19;5.70;;;4.30;;
16484;SDS011;8353;47.856;12.344;2022-07-23T11:36:01;4.07;;;3.78;;
16484;SDS011;8353;47.856;12.344;2022-07-23T11:38:33;3.10;;;2.90;;
16484;SDS011;8353;47.856;12.344;2022-07-23T11:41:05;3.50;;;3.20;;
16484;SDS011;8353;47.856;12.344;2022-07-23T11:43:36;3.60;;;3.30;;
16484;SDS011;8353;47.856;12.344;2022-07-23T11:46:09;3.65;;;3.35;;
16484;SDS011;8353;47.856;12.344;2022-07-23T11:48:40;3.40;;;3.20;;
16484;SDS011;8353;47.856;12.344;2022-07-23T11:51:12;3.42;;;3.13;;
16484;SDS011;8353;47.856;12.344;2022-07-23T11:53:55;3.72;;;3.42;;
16484;SDS011;8353;47.856;12.344;2022-07-23T11:56:36;3.88;;;3.55;;
16484;SDS011;8353;47.856;12.344;2022-07-23T11:59:07;4.78;;;3.92;;
16484;SDS011;8353;47.856;12.344;2022-07-23T12:01:52;3.40;;;3.20;;
16484;SDS011;8353;47.856;12.344;2022-07-23T12:04:36;4.00;;;3.70;;
16484;SDS011;8353;47.856;12.344;2022-07-23T12:10:03;4.82;;;4.43;;
16484;SDS011;8353;47.856;12.344;2022-07-23T12:12:39;3.75;;;3.45;;
16484;SDS011;8353;47.856;12.344;2022-07-23T12:15:11;3.92;;;3.53;;
16484;SDS011;8353;47.856;12.344;2022-07-23T12:17:44;3.75;;;3.45;;
16484;SDS011;8353;47.856;12.344;2022-07-23T12:20:17;3.90;;;3.40;;
16484;SDS011;8353;47.856;12.344;2022-07-23T12:22:51;4.05;;;3.65;;
16484;SDS011;8353;47.856;12.344;2022-07-23T12:25:25;4.00;;;3.70;;
16484;SDS011;8353;47.856;12.344;2022-07-23T12:27:58;3.83;;;3.53;;
16484;SDS011;8353;47.856;12.344;2022-07-23T12:30:33;4.28;;;3.97;;
16484;SDS011;8353;47.856;12.344;2022-07-23T12:33:07;4.32;;;3.83;;
16484;SDS011;8353;47.856;12.344;2022-07-23T12:35:39;4.78;;;4.13;;
16484;SDS011;8353;47.856;12.344;2022-07-23T12:38:12;3.58;;;3.25;;
16484;SDS011;8353;47.856;12.344;2022-07-23T12:40:47;3.95;;;3.55;;
16484;SDS011;8353;47.856;12.344;2022-07-23T12:43:20;5.45;;;4.95;;
16484;SDS011;8353;47.856;12.344;2022-07-23T12:45:53;3.92;;;3.63;;
16484;SDS011;8353;47.856;12.344;2022-07-23T12:48:25;3.58;;;3.38;;
16484;SDS011;8353;47.856;12.344;2022-07-23T12:50:57;5.32;;;4.07;;
16484;SDS011;8353;47.856;12.344;2022-07-23T12:53:31;3.65;;;3.35;;
16484;SDS011;8353;47.856;12.344;2022-07-23T12:56:06;4.95;;;4.45;;
16484;SDS011;8353;47.856;12.344;2022-07-23T12:58:45;4.25;;;3.85;;
16484;SDS011;8353;47.856;12.344;2022-07-23T13:01:24;5.78;;;4.20;;
16484;SDS011;8353;47.856;12.344;2022-07-23T13:03:57;4.70;;;4.30;;
16484;SDS011;8353;47.856;12.344;2022-07-23T13:06:29;4.60;;;4.30;;
16484;SDS011;8353;47.856;12.344;2022-07-23T13:09:03;4.63;;;4.20;;
16484;SDS011;8353;47.856;12.344;2022-07-23T13:11:37;4.53;;;3.97;;
16484;SDS011;8353;47.856;12.344;2022-07-23T13:14:08;4.38;;;3.97;;
16484;SDS011;8353;47.856;12.344;2022-07-23T13:16:39;4.28;;;3.88;;
16484;SDS011;8353;47.856;12.344;2022-07-23T13:19:10;6.57;;;4.28;;
16484;SDS011;8353;47.856;12.344;2022-07-23T13:21:42;4.05;;;3.65;;
16484;SDS011;8353;47.856;12.344;2022-07-23T13:24:13;4.05;;;3.75;;
16484;SDS011;8353;47.856;12.344;2022-07-23T13:26:45;3.72;;;3.42;;
16484;SDS011;8353;47.856;12.344;2022-07-23T13:29:18;4.22;;;3.83;;
16484;SDS011;8353;47.856;12.344;2022-07-23T13:31:49;4.72;;;4.35;;
16484;SDS011;8353;47.856;12.344;2022-07-23T13:34:19;5.05;;;4.40;;
16484;SDS011;8353;47.856;12.344;2022-07-23T13:36:50;4.03;;;3.70;;
16484;SDS011;8353;47.856;12.344;2022-07-23T13:39:20;4.05;;;3.65;;
16484;SDS011;8353;47.856;12.344;2022-07-23T13:41:52;4.75;;;4.25;;
16484;SDS011;8353;47.856;12.344;2022-07-23T13:44:22;4.50;;;4.20;;
16484;SDS011;8353;47.856;12.344;2022-07-23T13:46:54;4.60;;;4.20;;
16484;SDS011;8353;47.856;12.344;2022-07-23T13:49:24;4.35;;;3.95;;
16484;SDS011;8353;47.856;12.344;2022-07-23T13:51:55;4.93;;;4.43;;
16484;SDS011;8353;47.856;12.344;2022-07-23T13:54:26;4.25;;;3.92;;
16484;SDS011;8353;47.856;12.344;2022-07-23T13:56:59;4.82;;;4.40;;
16484;SDS011;8353;47.856;12.344;2022-07-23T13:59:29;4.70;;;4.30;;
16484;SDS011;8353;47.856;12.344;2022-07-23T14:02:00;4.22;;;3.92;;
16484;SDS011;8353;47.856;12.344;2022-07-23T14:04:30;4.80;;;4.40;;
16484;SDS011;8353;47.856;12.344;2022-07-23T14:07:01;4.00;;;3.70;;
16484;SDS011;8353;47.856;12.344;2022-07-23T14:09:32;4.03;;;3.72;;
16484;SDS011;8353;47.856;12.344;2022-07-23T14:12:05;4.47;;;4.18;;
16484;SDS011;8353;47.856;12.344;2022-07-23T14:14:36;4.20;;;3.83;;
16484;SDS011;8353;47.856;12.344;2022-07-23T14:17:07;3.65;;;3.45;;
16484;SDS011;8353;47.856;12.344;2022-07-23T14:19:38;4.13;;;3.80;;
16484;SDS011;8353;47.856;12.344;2022-07-23T14:22:09;3.78;;;3.47;;
16484;SDS011;8353;47.856;12.344;2022-07-23T14:24:40;4.07;;;3.75;;
16484;SDS011;8353;47.856;12.344;2022-07-23T14:27:12;4.18;;;3.88;;
16484;SDS011;8353;47.856;12.344;2022-07-23T14:29:43;4.60;;;4.20;;
16484;SDS011;8353;47.856;12.344;2022-07-23T14:32:13;4.22;;;3.90;;
16484;SDS011;8353;47.856;12.344;2022-07-23T14:34:45;3.92;;;3.58;;
16484;SDS011;8353;47.856;12.344;2022-07-23T14:37:16;4.20;;;3.88;;
16484;SDS011;8353;47.856;12.344;2022-07-23T14:39:47;4.35;;;3.80;;
16484;SDS011;8353;47.856;12.344;2022-07-23T14:42:19;4.85;;;3.65;;
16484;SDS011;8353;47.856;12.344;2022-07-23T14:44:50;3.67;;;3.47;;
16484;SDS011;8353;47.856;12.344;2022-07-23T14:47:21;3.78;;;3.47;;
16484;SDS011;8353;47.856;12.344;2022-07-23T14:49:52;3.88;;;3.58;;
16484;SDS011;8353;47.856;12.344;2022-07-23T14:52:23;3.53;;;3.30;;
16484;SDS011;8353;47.856;12.344;2022-07-23T14:54:54;3.90;;;3.63;;
16484;SDS011;8353;47.856;12.344;2022-07-23T14:57:26;4.15;;;3.63;;
16484;SDS011;8353;47.856;12.344;2022-07-23T14:59:58;4.03;;;3.72;;
16484;SDS011;8353;47.856;12.344;2022-07-23T15:02:29;4.25;;;3.80;;
16484;SDS011;8353;47.856;12.344;2022-07-23T15:04:59;4.30;;;4.00;;
16484;SDS011;8353;47.856;12.344;2022-07-23T15:07:31;4.38;;;4.07;;
16484;SDS011;8353;47.856;12.344;2022-07-23T15:10:02;3.80;;;3.50;;
16484;SDS011;8353;47.856;12.344;2022-07-23T15:12:34;3.88;;;3.58;;
16484;SDS011;8353;47.856;12.344;2022-07-23T15:15:06;3.70;;;3.50;;
16484;SDS011;8353;47.856;12.344;2022-07-23T15:17:38;4.20;;;3.90;;
16484;SDS011;8353;47.856;12.344;2022-07-23T15:20:08;3.70;;;3.40;;
16484;SDS011;8353;47.856;12.344;2022-07-23T15:22:39;5.25;;;4.85;;
16484;SDS011;8353;47.856;12.344;2022-07-23T15:25:10;4.88;;;4.38;;
16484;SDS011;8353;47.856;12.344;2022-07-23T15:27:42;5.15;;;4.30;;